Drexel, Ohio
Current Conditions -  °F | °C
As of 11:53 AM on Friday 28 Nov 2014 (Local Time) from KMGY Reporting Station
Broken Clouds Broken Clouds  
Wind Chill: 21°   Ceiling: 7000
Heat Index: 30°   Visibility: 10mi
Dew Point: 20°   Wind: 12mph
Humidity: 66%   Direction: 180°S
Pressure: 30.31"   Gusts: NA
Location:  39.7548°N, 84.3084°W
Report Text: KMGY 281653Z AUTO 18010KT 10SM BKN070 M01/M07 A3031 RMK AO2 SLP275 T10111067
Loading
Personal Weather Stations






























Interactive Weather Map New forecast layout! Learn more

10-Day Weather Forecast

Advertisements
Track Severe Weather on mobile